Time;durP1;ratioP1;P1;durP2;ratioP2;P2;SDS_P1;SDS_P2;PMS_P1;PMS_P2;Temp;Humidity;BMP_temperature;BMP_pressure;BME280_temperature;BME280_humidity;BME280_pressure;Samples;Min_cycle;Max_cycle;Signal;HPM_P1;HPM_P2
2022/06/10 00:01:09;;;;;;;12.93;3.20;;;;;;;13.41;100.00;101980.91;5073179;28;20481;-51
2022/06/10 00:03:37;;;;;;;8.52;2.78;;;;;;;13.35;100.00;101977.69;5073049;28;20118;-51
2022/06/10 00:06:07;;;;;;;9.02;2.78;;;;;;;13.40;100.00;101973.91;5072900;28;20052;-57
2022/06/10 00:08:37;;;;;;;10.50;2.70;;;;;;;13.41;100.00;101970.34;5073070;28;20053;-50
2022/06/10 00:11:07;;;;;;;7.38;2.20;;;;;;;13.40;100.00;101971.28;5072153;28;20492;-56
2022/06/10 00:13:39;;;;;;;9.88;2.75;;;;;;;13.40;100.00;101971.28;5072928;28;20044;-51
2022/06/10 00:16:09;;;;;;;8.68;2.50;;;;;;;13.35;100.00;101979.47;5071996;28;20052;-52
2022/06/10 00:18:38;;;;;;;6.85;2.55;;;;;;;13.34;100.00;101975.94;5073328;28;20091;-56
2022/06/10 00:21:08;;;;;;;7.30;2.40;;;;;;;13.17;100.00;101974.31;5072559;28;20083;-52
2022/06/10 00:23:36;;;;;;;6.82;2.80;;;;;;;13.16;100.00;101975.22;5073138;28;20062;-48
2022/06/10 00:26:05;;;;;;;7.95;2.95;;;;;;;13.19;100.00;101961.84;5072103;28;20064;-54
2022/06/10 00:28:34;;;;;;;7.40;2.50;;;;;;;13.14;100.00;101965.69;5072774;28;20044;-52
2022/06/10 00:31:02;;;;;;;7.30;2.63;;;;;;;13.15;100.00;101965.59;5072395;28;20068;-51
2022/06/10 00:33:34;;;;;;;9.35;2.55;;;;;;;13.02;100.00;101962.84;5068394;28;20056;-57
2022/06/10 00:36:03;;;;;;;9.18;3.45;;;;;;;13.01;100.00;101963.78;5069058;28;20045;-50
2022/06/10 00:38:31;;;;;;;8.88;2.72;;;;;;;13.01;100.00;101966.41;5072525;28;20048;-51
2022/06/10 00:41:00;;;;;;;7.32;2.60;;;;;;;13.00;100.00;101966.50;5072640;28;20056;-48
2022/06/10 00:43:31;;;;;;;8.73;2.67;;;;;;;12.95;100.00;101968.56;5072267;28;20060;-57
2022/06/10 00:46:06;;;;;;;8.15;2.90;;;;;;;12.82;100.00;101968.41;5071627;28;20044;-57
2022/06/10 00:48:42;;;;;;;5.57;2.22;;;;;;;12.82;100.00;101965.78;5072469;28;20040;-57
2022/06/10 00:51:19;;;;;;;5.80;2.33;;;;;;;12.83;100.00;101970.13;5072173;28;20468;-49
2022/06/10 00:53:52;;;;;;;9.57;2.83;;;;;;;12.78;100.00;101969.53;5072110;28;20048;-50
2022/06/10 00:56:24;;;;;;;7.30;2.40;;;;;;;12.78;100.00;101959.81;5068244;28;20028;-56
2022/06/10 00:58:56;;;;;;;9.32;2.70;;;;;;;12.78;100.00;101959.81;5053806;28;20052;-56
2022/06/10 01:01:25;;;;;;;11.85;2.60;;;;;;;12.67;100.00;101963.06;5072272;28;20055;-56
2022/06/10 01:03:56;;;;;;;8.80;3.28;;;;;;;12.69;100.00;101970.88;5072610;28;20052;-57
2022/06/10 01:06:24;;;;;;;11.00;3.00;;;;;;;12.59;100.00;101970.53;5070696;28;20040;-55
2022/06/10 01:08:54;;;;;;;8.55;2.53;;;;;;;12.54;100.00;101961.19;5071962;28;20056;-49
2022/06/10 01:12:01;;;;;;;9.02;2.95;;;;;;;12.63;100.00;101965.97;5071538;28;20534;-56
2022/06/10 01:14:43;;;;;;;6.45;3.25;;;;;;;12.67;100.00;101964.84;5052168;28;20048;-57
2022/06/10 01:17:23;;;;;;;9.75;2.53;;;;;;;12.53;100.00;101965.63;5071666;28;20106;-57
2022/06/10 01:20:19;;;;;;;7.03;2.85;;;;;;;12.60;100.00;101961.69;5068445;28;20052;-57
2022/06/10 01:23:32;;;;;;;8.38;2.67;;;;;;;12.53;100.00;101960.34;5064096;28;20384;-47
2022/06/10 01:26:18;;;;;;;;;;;;;;;12.58;100.00;101962.72;5071215;28;20054;-52
2022/06/10 01:29:10;;;;;;;5.95;2.25;;;;;;;12.50;100.00;101955.22;5071444;28;19920;-48
2022/06/10 01:31:48;;;;;;;8.70;2.40;;;;;;;12.48;100.00;101951.84;5071620;28;20071;-47
2022/06/10 01:34:28;;;;;;;8.85;3.08;;;;;;;12.42;100.00;101949.53;5072107;28;20461;-49
2022/06/10 01:37:03;;;;;;;8.52;2.97;;;;;;;12.37;100.00;101949.78;5071383;28;20044;-48
2022/06/10 01:39:41;;;;;;;8.23;3.15;;;;;;;12.31;100.00;101952.75;5067800;28;20040;-50
2022/06/10 01:42:16;;;;;;;7.88;3.35;;;;;;;12.27;100.00;101957.34;5070417;28;20048;-51
2022/06/10 01:44:55;;;;;;;7.57;2.90;;;;;;;12.31;100.00;101956.25;5071585;28;20036;-49
2022/06/10 01:47:31;;;;;;;8.68;2.60;;;;;;;12.27;100.00;101953.84;5071946;28;20048;-54
2022/06/10 01:50:03;;;;;;;8.05;2.80;;;;;;;12.24;100.00;101954.88;5071634;28;20503;-52
2022/06/10 01:52:39;;;;;;;6.67;2.70;;;;;;;12.18;100.00;101955.22;5071957;28;20051;-50
2022/06/10 01:55:13;;;;;;;6.97;3.08;;;;;;;12.16;100.00;101950.03;5071346;28;20044;-49
2022/06/10 01:57:48;;;;;;;10.40;2.83;;;;;;;12.13;100.00;101951.97;5071956;28;21001;-46
2022/06/10 02:00:21;;;;;;;6.20;2.50;;;;;;;12.11;100.00;101954.69;5071252;28;20056;-51
2022/06/10 02:02:57;;;;;;;10.02;2.83;;;;;;;12.07;100.00;101947.03;5071820;28;20040;-47
2022/06/10 02:05:28;;;;;;;12.70;3.40;;;;;;;11.98;100.00;101954.53;5071597;28;20553;-49
2022/06/10 02:08:03;;;;;;;9.95;3.22;;;;;;;12.06;100.00;101951.44;5071496;28;20036;-49
2022/06/10 02:10:36;;;;;;;9.30;3.17;;;;;;;11.99;100.00;101961.47;5071136;28;20072;-50
2022/06/10 02:13:10;;;;;;;9.05;3.00;;;;;;;12.02;100.00;101959.63;5052669;28;20387;-49
2022/06/10 02:15:41;;;;;;;9.23;3.28;;;;;;;12.01;100.00;101958.75;5071727;28;20044;-49
2022/06/10 02:18:15;;;;;;;8.48;2.83;;;;;;;12.05;100.00;101962.09;5071627;28;20052;-49
2022/06/10 02:20:47;;;;;;;9.45;2.85;;;;;;;12.02;100.00;101962.25;5071042;28;20067;-51
2022/06/10 02:23:20;;;;;;;7.35;2.67;;;;;;;11.91;100.00;101962.78;5071138;28;20048;-49
2022/06/10 02:25:52;;;;;;;8.60;2.80;;;;;;;11.87;100.00;101964.72;5071543;28;20049;-50
2022/06/10 02:28:26;;;;;;;12.10;3.50;;;;;;;11.96;100.00;101963.44;5071240;28;20105;-57
2022/06/10 02:30:58;;;;;;;8.30;2.90;;;;;;;11.96;100.00;101972.19;5071026;28;20123;-52
2022/06/10 02:33:28;;;;;;;8.70;3.10;;;;;;;11.96;100.00;101969.56;5071245;28;20476;-59
2022/06/10 02:36:05;;;;;;;8.35;3.25;;;;;;;11.99;100.00;101969.38;5069587;28;20522;-57
2022/06/10 02:38:41;;;;;;;13.63;3.58;;;;;;;11.86;100.00;101967.44;5067497;28;20098;-56
2022/06/10 02:41:17;;;;;;;9.90;3.03;;;;;;;11.82;100.00;101970.25;5074350;28;20479;-58
2022/06/10 02:43:54;;;;;;;5.90;3.00;;;;;;;11.77;100.00;101964.38;5074637;28;20052;-58
2022/06/10 02:46:25;;;;;;;10.05;3.45;;;;;;;11.79;100.00;101965.16;5073120;28;20044;-58
2022/06/10 02:49:02;;;;;;;8.00;3.45;;;;;;;11.83;100.00;101976.38;5074457;28;20568;-58
2022/06/10 02:51:30;;;;;;;9.02;3.63;;;;;;;11.92;100.00;101970.63;5072791;28;20059;-58
2022/06/10 02:54:00;;;;;;;10.15;4.30;;;;;;;11.92;100.00;101965.34;5074066;28;20071;-56
2022/06/10 02:56:30;;;;;;;8.25;3.70;;;;;;;11.93;100.00;101969.69;5074232;28;20048;-57
2022/06/10 03:02:19;;;;;;;10.30;3.63;;;;;;;12.03;100.00;101975.34;5074749;28;20090;-51
2022/06/10 03:05:01;;;;;;;10.75;3.63;;;;;;;12.08;100.00;101980.38;5074659;28;20048;-57
2022/06/10 03:07:50;;;;;;;8.52;3.90;;;;;;;12.11;100.00;101972.31;5073725;28;20053;-57
2022/06/10 03:10:26;;;;;;;12.10;3.90;;;;;;;12.13;100.00;101966.03;5074410;28;20483;-57
2022/06/10 03:13:08;;;;;;;12.23;3.95;;;;;;;12.17;100.00;101978.13;5074976;28;20044;-56
2022/06/10 03:15:50;;;;;;;11.65;3.90;;;;;;;12.22;100.00;101971.75;5074501;28;20036;-58
2022/06/10 03:18:30;;;;;;;12.52;3.85;;;;;;;12.25;100.00;101969.75;5070701;28;20055;-53
2022/06/10 03:21:12;;;;;;;9.18;3.70;;;;;;;12.31;100.00;101964.16;5070229;28;20053;-50
2022/06/10 03:23:49;;;;;;;8.82;3.35;;;;;;;12.35;100.00;101972.75;5074502;28;20033;-50
2022/06/10 03:26:28;;;;;;;14.00;3.53;;;;;;;12.41;100.00;101971.59;5074100;28;20049;-48
2022/06/10 03:29:02;;;;;;;8.48;3.55;;;;;;;12.45;100.00;101968.69;5057201;28;20369;-50
2022/06/10 03:31:41;;;;;;;10.50;3.55;;;;;;;12.52;100.00;101969.19;5073619;28;20060;-51
2022/06/10 03:34:16;;;;;;;10.95;3.95;;;;;;;12.54;100.00;101966.47;5073917;28;20049;-48
2022/06/10 03:36:47;;;;;;;11.30;4.13;;;;;;;12.61;100.00;101967.81;5073865;28;20052;-48
2022/06/10 03:39:16;;;;;;;10.43;3.63;;;;;;;12.64;100.00;101970.31;5070154;28;20048;-49
2022/06/10 03:41:58;;;;;;;11.18;3.42;;;;;;;12.67;100.00;101978.03;5070732;28;20123;-49
2022/06/10 03:44:27;;;;;;;10.93;3.65;;;;;;;12.72;100.00;101964.56;5071326;28;20099;-51
2022/06/10 03:46:57;;;;;;;9.38;3.20;;;;;;;12.76;100.00;101966.09;5056638;28;20114;-51
2022/06/10 03:49:30;;;;;;;15.27;3.90;;;;;;;12.85;100.00;101961.16;5059189;28;20041;-48
2022/06/10 03:52:01;;;;;;;;;;;;;;;12.94;100.00;101967.72;5073200;28;20113;-49
2022/06/10 03:54:29;;;;;;;11.93;3.42;;;;;;;12.93;100.00;101970.44;5071439;28;19928;-51
2022/06/10 03:56:57;;;;;;;10.63;3.40;;;;;;;12.93;100.00;101970.44;5073199;28;20075;-48
2022/06/10 03:59:25;;;;;;;8.98;3.38;;;;;;;12.95;100.00;101974.69;5073846;28;20538;-53
2022/06/10 04:01:53;;;;;;;12.98;3.65;;;;;;;12.99;100.00;101988.56;5073831;28;20044;-49
2022/06/10 04:04:21;;;;;;;11.38;3.67;;;;;;;13.04;100.00;101990.94;5071672;28;20106;-47
2022/06/10 04:06:49;;;;;;;11.20;3.50;;;;;;;13.07;100.00;102001.34;5069529;28;20055;-51
2022/06/10 04:09:28;;;;;;;11.82;3.60;;;;;;;13.12;100.00;102009.84;5072899;28;20028;-50
2022/06/10 04:11:56;;;;;;;10.85;3.50;;;;;;;13.16;100.00;102014.03;5066484;28;20055;-52
2022/06/10 04:14:24;;;;;;;10.00;3.33;;;;;;;13.21;100.00;102014.59;5072825;28;20052;-57
2022/06/10 04:16:52;;;;;;;11.38;3.50;;;;;;;13.24;100.00;102014.44;5073038;28;20049;-57
2022/06/10 04:19:21;;;;;;;11.77;3.28;;;;;;;13.29;100.00;102017.66;5073111;28;20492;-58
2022/06/10 04:21:49;;;;;;;10.77;3.13;;;;;;;13.32;100.00;102012.19;5067300;28;20083;-58
2022/06/10 04:24:17;;;;;;;13.50;3.30;;;;;;;13.39;100.00;102030.34;5072621;28;20454;-52
2022/06/10 04:26:47;;;;;;;11.50;3.72;;;;;;;13.43;100.00;102031.88;5072967;28;20482;-58
2022/06/10 04:29:16;;;;;;;17.00;4.13;;;;;;;13.49;100.00;102034.16;5072610;28;20044;-57
2022/06/10 04:31:44;;;;;;;13.15;3.53;;;;;;;13.48;100.00;102038.59;5060156;28;20045;-53
2022/06/10 04:34:12;;;;;;;10.50;3.42;;;;;;;13.54;100.00;102045.31;5071781;28;20098;-52
2022/06/10 04:36:41;;;;;;;12.45;4.07;;;;;;;13.53;100.00;102040.97;5066072;28;20040;-53
2022/06/10 04:39:09;;;;;;;9.15;4.07;;;;;;;13.53;100.00;102036.53;5072457;28;20380;-49
2022/06/10 04:41:38;;;;;;;10.85;3.65;;;;;;;13.57;100.00;102037.19;5071801;28;20048;-49
2022/06/10 04:44:08;;;;;;;9.68;3.90;;;;;;;13.59;100.00;102039.75;5053350;28;20052;-53
2022/06/10 04:46:41;;;;;;;9.73;3.80;;;;;;;13.63;100.00;102036.84;5069367;28;20056;-51
2022/06/10 04:49:10;;;;;;;9.07;3.90;;;;;;;13.62;100.00;102043.06;5062691;28;20049;-51
2022/06/10 04:51:38;;;;;;;13.25;4.43;;;;;;;13.61;100.00;102037.88;5052355;28;20049;-47
2022/06/10 04:54:07;;;;;;;11.65;3.90;;;;;;;13.62;100.00;102040.44;5066511;28;20048;-53
2022/06/10 04:56:37;;;;;;;13.07;4.22;;;;;;;13.66;100.00;102038.44;5072206;28;20056;-53
2022/06/10 04:59:05;;;;;;;14.43;4.18;;;;;;;13.67;100.00;102043.66;5072489;28;20106;-53
2022/06/10 05:01:34;;;;;;;13.63;4.03;;;;;;;13.71;100.00;102049.59;5072006;28;20049;-54
2022/06/10 05:04:02;;;;;;;10.52;4.05;;;;;;;13.71;100.00;102051.41;5068922;28;20817;-54
2022/06/10 05:06:31;;;;;;;11.23;3.70;;;;;;;13.68;100.00;102034.75;5064951;28;20101;-52
2022/06/10 05:08:59;;;;;;;12.60;4.32;;;;;;;13.67;100.00;102009.28;5067622;28;20538;-51
2022/06/10 05:11:27;;;;;;;13.68;4.68;;;;;;;13.69;100.00;102019.78;5070981;28;20063;-54
2022/06/10 05:13:55;;;;;;;13.70;4.38;;;;;;;13.69;100.00;102011.84;5069530;28;20049;-53
2022/06/10 05:16:24;;;;;;;14.00;4.95;;;;;;;13.60;100.00;102013.22;5071094;28;20048;-53
2022/06/10 05:18:54;;;;;;;13.13;4.55;;;;;;;13.63;100.00;102021.00;5064793;28;20467;-54
2022/06/10 05:21:22;;;;;;;14.07;5.20;;;;;;;13.68;100.00;102013.63;5070902;28;20041;-51
2022/06/10 05:23:50;;;;;;;11.50;4.75;;;;;;;13.72;100.00;102016.09;5067974;28;20076;-52
2022/06/10 05:26:18;;;;;;;12.07;4.68;;;;;;;13.78;100.00;102013.06;5070504;28;20040;-53
2022/06/10 05:28:50;;;;;;;11.60;5.03;;;;;;;13.86;100.00;102016.09;5071059;28;20036;-53
2022/06/10 05:31:18;;;;;;;11.40;4.53;;;;;;;13.83;100.00;102009.19;5070851;28;20498;-49
2022/06/10 05:36:33;;;;;;;9.98;4.13;;;;;;;14.06;100.00;102006.09;5069372;28;20052;-53
2022/06/10 05:39:02;;;;;;;17.58;5.68;;;;;;;14.16;100.00;102002.78;5069436;28;20036;-55
2022/06/10 05:44:15;;;;;;;11.25;4.47;;;;;;;14.34;100.00;102003.47;5070481;28;20052;-56
2022/06/10 05:46:43;;;;;;;13.88;4.85;;;;;;;14.41;100.00;102008.34;5070539;28;20066;-50
2022/06/10 05:49:12;;;;;;;11.63;4.90;;;;;;;14.47;100.00;102002.69;5070221;28;20049;-54
2022/06/10 05:51:42;;;;;;;13.55;4.55;;;;;;;14.48;100.00;102007.00;5070077;28;20041;-53
2022/06/10 05:54:10;;;;;;;14.68;5.32;;;;;;;14.60;100.00;102006.25;5070677;28;20052;-53
2022/06/10 05:56:39;;;;;;;14.55;5.45;;;;;;;14.66;100.00;102007.69;5070518;28;20048;-52
2022/06/10 05:59:07;;;;;;;12.15;4.07;;;;;;;14.57;100.00;102002.94;5070711;28;20045;-51
2022/06/10 06:01:36;;;;;;;11.30;3.90;;;;;;;14.63;100.00;102000.78;5069033;28;20062;-53
2022/06/10 06:04:04;;;;;;;13.93;4.60;;;;;;;14.65;100.00;101998.88;5068531;28;20068;-55
2022/06/10 06:06:32;;;;;;;13.15;4.38;;;;;;;14.69;100.00;102000.38;5070540;28;20048;-53
2022/06/10 06:09:02;;;;;;;11.23;4.38;;;;;;;14.74;100.00;101999.22;5070665;28;20052;-50
2022/06/10 06:11:30;;;;;;;11.88;4.28;;;;;;;14.84;100.00;102001.19;5068027;28;20079;-52
2022/06/10 06:13:58;;;;;;;9.88;4.13;;;;;;;14.96;100.00;102001.34;5070955;28;20456;-51
2022/06/10 06:16:26;;;;;;;17.77;4.93;;;;;;;15.02;100.00;101996.50;5074959;28;20049;-51
2022/06/10 06:18:54;;;;;;;14.27;4.32;;;;;;;15.20;100.00;101999.72;5075116;28;20053;-50
2022/06/10 06:21:22;;;;;;;12.43;4.55;;;;;;;15.20;100.00;102010.31;5073965;28;20139;-48
2022/06/10 06:23:50;;;;;;;10.73;4.07;;;;;;;15.29;100.00;102013.31;5075331;28;20056;-54
2022/06/10 06:26:20;;;;;;;11.63;4.03;;;;;;;15.33;100.00;102013.00;5075329;28;20568;-47
2022/06/10 06:28:48;;;;;;;14.73;5.00;;;;;;;15.43;100.00;102007.09;5075219;28;20052;-48
2022/06/10 06:31:16;;;;;;;20.13;4.47;;;;;;;15.51;100.00;102008.25;5074767;28;20056;-50
2022/06/10 06:33:44;;;;;;;11.10;4.53;;;;;;;15.60;100.00;102011.22;5075334;28;20083;-50
2022/06/10 06:36:19;;;;;;;11.73;4.22;;;;;;;15.75;100.00;102010.19;5075192;28;20117;-51
2022/06/10 06:38:47;;;;;;;10.90;4.38;;;;;;;15.80;100.00;102012.56;5075328;28;20056;-50
2022/06/10 06:41:15;;;;;;;11.50;4.30;;;;;;;15.87;100.00;102019.16;5073579;28;20068;-49
2022/06/10 06:43:45;;;;;;;12.20;4.80;;;;;;;15.97;100.00;102014.91;5075161;28;20407;-51
2022/06/10 06:46:15;;;;;;;15.45;4.88;;;;;;;16.10;100.00;102017.56;5075115;28;20430;-52
2022/06/10 06:48:45;;;;;;;14.45;5.30;;;;;;;16.04;100.00;102018.81;5075155;28;20047;-49
2022/06/10 06:51:13;;;;;;;12.88;5.13;;;;;;;16.11;100.00;102021.03;5074678;28;20471;-51
2022/06/10 06:53:41;;;;;;;14.00;4.68;;;;;;;16.30;100.00;102024.09;5075021;28;20090;-53
2022/06/10 06:56:09;;;;;;;13.65;4.57;;;;;;;16.32;100.00;102024.84;5074996;28;20049;-49
2022/06/10 06:58:38;;;;;;;12.68;4.38;;;;;;;16.46;100.00;102018.53;5074858;28;20132;-47
2022/06/10 07:01:07;;;;;;;17.33;4.70;;;;;;;16.58;100.00;102030.09;5074926;28;20102;-55
2022/06/10 07:03:35;;;;;;;12.40;4.10;;;;;;;16.68;100.00;102025.81;5074227;28;20081;-50
2022/06/10 07:06:03;;;;;;;12.27;4.28;;;;;;;16.79;100.00;102026.84;5074483;28;20045;-52
2022/06/10 07:08:34;;;;;;;11.60;3.90;;;;;;;16.93;100.00;102032.00;5074363;28;20048;-51
2022/06/10 07:11:04;;;;;;;13.27;4.30;;;;;;;17.04;100.00;102025.91;5074613;28;20036;-53
2022/06/10 07:13:32;;;;;;;11.75;3.90;;;;;;;17.13;100.00;102032.38;5074382;28;20425;-57
2022/06/10 07:16:01;;;;;;;9.60;3.90;;;;;;;17.24;100.00;102032.41;5074360;28;20072;-55
2022/06/10 07:18:32;;;;;;;11.70;3.67;;;;;;;17.22;100.00;102039.66;5074522;28;20096;-55
2022/06/10 07:21:01;;;;;;;12.35;3.70;;;;;;;17.26;100.00;102035.81;5074123;28;20045;-49
2022/06/10 07:23:29;;;;;;;12.45;3.67;;;;;;;17.21;100.00;102033.47;5074057;28;20555;-50
2022/06/10 07:25:58;;;;;;;8.98;3.30;;;;;;;17.26;100.00;102035.81;5073457;28;20502;-47
2022/06/10 07:28:27;;;;;;;11.57;3.35;;;;;;;17.31;100.00;102046.91;5073615;28;20052;-47
2022/06/10 07:30:55;;;;;;;11.88;3.13;;;;;;;17.31;100.00;102041.59;5073581;28;20049;-56
2022/06/10 07:33:23;;;;;;;8.57;2.50;;;;;;;17.35;100.00;102032.44;5073766;28;20040;-52
2022/06/10 07:35:53;;;;;;;11.63;2.85;;;;;;;17.39;100.00;102038.38;5073702;28;20076;-49
2022/06/10 07:38:21;;;;;;;8.52;2.58;;;;;;;17.43;100.00;102033.69;5072521;28;20044;-50
2022/06/10 07:43:40;;;;;;;8.73;2.70;;;;;;;17.59;100.00;102042.19;5073991;28;20499;-53
2022/06/10 07:46:09;;;;;;;12.05;2.30;;;;;;;17.53;100.00;102034.66;5074165;28;20049;-51
2022/06/10 07:48:38;;;;;;;8.25;2.45;;;;;;;17.39;100.00;102036.56;5073946;28;20049;-52
2022/06/10 07:51:07;;;;;;;9.70;2.30;;;;;;;17.45;100.00;102039.72;5073724;28;20093;-52
2022/06/10 07:53:35;;;;;;;9.90;2.03;;;;;;;17.58;100.00;102041.34;5073604;28;20049;-50
2022/06/10 07:56:04;;;;;;;6.80;1.88;;;;;;;17.69;100.00;102045.84;5073771;28;20059;-50
2022/06/10 07:58:32;;;;;;;8.73;1.95;;;;;;;17.76;100.00;102038.22;5073598;28;20079;-48
2022/06/10 08:01:00;;;;;;;9.43;2.42;;;;;;;17.88;100.00;102033.78;5072295;28;20102;-49
2022/06/10 08:03:29;;;;;;;8.10;2.10;;;;;;;17.89;99.97;102031.00;5073380;28;20491;-49
2022/06/10 08:05:59;;;;;;;6.35;2.00;;;;;;;17.98;100.00;102041.94;5072378;28;20068;-49
2022/06/10 08:08:28;;;;;;;8.00;2.22;;;;;;;18.07;99.76;102033.22;5073279;28;20055;-54
2022/06/10 08:10:57;;;;;;;7.95;1.83;;;;;;;18.24;98.74;102035.41;5073493;28;20072;-52
2022/06/10 08:13:26;;;;;;;6.13;1.80;;;;;;;18.44;99.12;102037.47;5073275;28;20052;-52
2022/06/10 08:15:57;;;;;;;9.02;2.50;;;;;;;18.49;96.08;102035.28;5072787;28;20499;-52
2022/06/10 08:18:26;;;;;;;12.05;2.28;;;;;;;18.66;98.79;102034.75;5069564;28;20044;-52
2022/06/10 08:23:42;;;;;;;8.55;1.92;;;;;;;19.11;95.00;102039.13;5073523;28;20048;-53
2022/06/10 08:26:12;;;;;;;12.52;2.20;;;;;;;19.15;93.92;102037.06;5072515;28;20041;-51
2022/06/10 08:28:42;;;;;;;11.82;2.08;;;;;;;19.45;93.07;102032.81;5073248;28;20432;-52
2022/06/10 08:31:10;;;;;;;10.55;1.98;;;;;;;19.65;91.11;102039.97;5072917;28;20400;-52
2022/06/10 08:33:39;;;;;;;6.30;1.70;;;;;;;19.90;91.75;102033.41;5072969;28;20076;-51
2022/06/10 08:36:07;;;;;;;6.90;1.90;;;;;;;20.09;89.04;102026.47;5071373;28;20566;-53
2022/06/10 08:38:36;;;;;;;7.65;2.17;;;;;;;20.30;87.61;102030.91;5065634;28;20062;-52
2022/06/10 08:41:23;;;;;;;6.30;1.77;;;;;;;20.42;84.50;102040.50;5071368;28;20052;-53
2022/06/10 08:43:59;;;;;;;6.47;1.45;;;;;;;20.37;84.85;102024.03;5068327;28;20041;-52
2022/06/10 08:46:47;;;;;;;7.90;1.52;;;;;;;20.60;80.53;102030.84;5068915;28;20094;-53
2022/06/10 08:49:51;;;;;;;8.10;1.85;;;;;;;20.94;82.88;102029.66;5070951;28;20052;-49
2022/06/10 08:52:31;;;;;;;6.95;1.88;;;;;;;21.06;79.54;102030.38;5072572;28;20048;-50
2022/06/10 08:55:10;;;;;;;8.48;1.80;;;;;;;21.04;78.04;102025.16;5072723;28;20483;-53
2022/06/10 08:57:46;;;;;;;7.13;1.70;;;;;;;21.15;79.82;102028.72;5072780;28;20105;-53
2022/06/10 09:00:20;;;;;;;7.35;1.80;;;;;;;21.31;78.21;102026.31;5064891;28;20075;-53
2022/06/10 09:02:53;;;;;;;8.85;1.67;;;;;;;21.33;77.72;102021.63;5053662;28;20044;-52
2022/06/10 09:05:26;;;;;;;10.50;1.85;;;;;;;21.37;77.43;102022.22;5049713;28;20056;-53
2022/06/10 09:07:58;;;;;;;9.18;1.88;;;;;;;21.58;78.62;102019.38;5049853;28;20044;-50
2022/06/10 09:10:33;;;;;;;7.75;2.00;;;;;;;21.91;77.27;102015.34;5052729;28;20384;-53
2022/06/10 09:13:35;;;;;;;19.55;3.88;;;;;;;22.08;76.04;102018.25;5051957;28;20063;-48
2022/06/10 09:16:13;;;;;;;5.28;1.60;;;;;;;22.39;76.23;102020.69;5045143;28;20147;-51
2022/06/10 09:18:55;;;;;;;9.18;2.10;;;;;;;22.23;72.86;102030.16;5050394;28;20057;-51
2022/06/10 09:21:32;;;;;;;7.88;1.88;;;;;;;22.07;73.57;102024.59;5053607;28;20056;-52
2022/06/10 09:24:08;;;;;;;7.50;1.63;;;;;;;22.05;70.78;102021.22;5052287;28;20099;-51
2022/06/10 09:26:40;;;;;;;9.10;2.00;;;;;;;22.33;72.99;102022.06;5049735;28;20059;-51
2022/06/10 09:29:12;;;;;;;7.25;1.48;;;;;;;22.61;72.01;102024.78;5057178;28;20503;-52
2022/06/10 09:31:42;;;;;;;7.65;2.00;;;;;;;22.52;69.27;102023.81;5066335;28;20404;-54
2022/06/10 09:34:29;;;;;;;5.00;1.55;;;;;;;22.55;70.15;102017.31;5052286;28;20369;-52
2022/06/10 09:37:09;;;;;;;8.73;1.95;;;;;;;22.57;68.12;102023.38;5052070;28;20049;-53
2022/06/10 09:42:41;;;;;;;8.73;2.05;;;;;;;23.12;67.14;102012.56;5040259;28;20061;-53
2022/06/10 09:45:20;;;;;;;7.72;1.75;;;;;;;23.23;68.51;102014.16;5067052;28;20059;-52
2022/06/10 09:47:59;;;;;;;9.35;1.65;;;;;;;23.52;67.68;102012.16;5055752;28;20037;-51
2022/06/10 09:50:32;;;;;;;8.07;1.60;;;;;;;23.45;64.42;102003.91;5056683;28;20033;-53
2022/06/10 09:53:16;;;;;;;8.70;1.88;;;;;;;23.33;65.27;102013.22;5055802;28;20107;-59
2022/06/10 09:55:53;;;;;;;9.18;1.90;;;;;;;23.58;64.73;102003.50;5054132;28;20049;-52
2022/06/10 09:58:47;;;;;;;6.38;1.50;;;;;;;23.75;65.00;102004.44;5052666;28;20052;-58
2022/06/10 10:01:31;;;;;;;7.07;1.60;;;;;;;23.93;64.00;101999.88;5057148;28;20519;-58
2022/06/10 10:04:38;;;;;;;9.02;1.60;;;;;;;24.35;65.06;102005.41;5059503;28;20044;-51
2022/06/10 10:07:20;;;;;;;6.22;1.55;;;;;;;24.29;61.23;102005.03;5055693;28;20055;-58
2022/06/10 10:09:59;;;;;;;6.75;1.48;;;;;;;24.60;62.48;102001.78;5055904;28;20396;-58
2022/06/10 10:12:40;;;;;;;10.25;2.05;;;;;;;24.62;60.82;102004.31;5071750;28;20046;-58
2022/06/10 10:15:20;;;;;;;6.75;1.30;;;;;;;24.78;61.44;102004.34;5070874;28;20102;-51
2022/06/10 10:18:08;;;;;;;6.82;1.60;;;;;;;24.94;58.07;101997.31;5070988;28;20046;-52
2022/06/10 10:20:54;;;;;;;7.68;1.70;;;;;;;24.91;58.30;102003.00;5075494;28;20056;-51
2022/06/10 10:23:30;;;;;;;9.05;1.83;;;;;;;24.19;59.63;102001.66;5073228;28;20494;-53
2022/06/10 10:25:58;;;;;;;10.48;1.60;;;;;;;24.28;61.43;101997.16;5075437;28;20115;-58
2022/06/10 10:28:31;;;;;;;8.20;1.88;;;;;;;24.82;60.72;101998.66;5061353;28;20128;-58
2022/06/10 10:31:09;;;;;;;6.57;1.50;;;;;;;25.16;59.48;101997.66;5053855;28;20111;-58
2022/06/10 10:33:38;;;;;;;7.72;1.67;;;;;;;25.77;59.05;101995.41;5074058;28;20040;-58
2022/06/10 10:36:13;;;;;;;6.82;1.60;;;;;;;26.07;58.29;101992.94;5075231;28;20037;-58
2022/06/10 10:38:44;;;;;;;9.05;1.80;;;;;;;26.37;57.39;101994.00;5075009;28;20445;-58
2022/06/10 10:41:19;;;;;;;10.68;2.03;;;;;;;26.28;53.78;101987.78;5072286;28;20373;-51
2022/06/10 10:43:51;;;;;;;11.43;1.67;;;;;;;26.33;53.63;101984.59;5057430;28;20052;-52
2022/06/10 10:46:30;;;;;;;9.00;1.83;;;;;;;26.45;54.25;101985.84;5053350;28;20415;-51
2022/06/10 10:49:00;;;;;;;6.63;1.77;;;;;;;26.49;54.52;101987.19;5055084;28;20056;-59
2022/06/10 10:51:34;;;;;;;7.78;1.65;;;;;;;26.88;54.73;101995.38;5055286;28;20053;-58
2022/06/10 10:54:29;;;;;;;11.00;2.00;;;;;;;27.25;53.62;101993.72;5062510;28;20541;-58
2022/06/10 10:56:58;;;;;;;8.32;2.00;;;;;;;27.36;52.69;101992.44;5072135;28;20044;-52
2022/06/10 10:59:33;;;;;;;10.82;2.17;;;;;;;26.88;53.11;101996.22;5069806;28;20061;-57
2022/06/10 11:02:02;;;;;;;7.53;1.95;;;;;;;26.76;52.26;101997.66;5074736;28;20045;-57
2022/06/10 11:04:34;;;;;;;10.68;1.90;;;;;;;26.75;51.55;101991.44;5065662;28;20128;-58
2022/06/10 11:07:14;;;;;;;7.97;2.28;;;;;;;26.56;52.32;101994.53;5051554;28;20519;-52
2022/06/10 11:10:07;;;;;;;13.18;2.25;;;;;;;26.12;54.20;101991.44;5053918;28;20056;-57
2022/06/10 11:12:35;;;;;;;8.27;2.10;;;;;;;26.70;53.21;101992.97;5051026;28;20142;-57
2022/06/10 11:15:17;;;;;;;9.98;2.13;;;;;;;26.63;53.88;101996.34;5052579;28;20052;-51
2022/06/10 11:17:49;;;;;;;10.85;2.33;;;;;;;26.49;53.33;101997.97;5051901;28;20049;-53
2022/06/10 11:20:27;;;;;;;10.25;2.20;;;;;;;26.62;53.28;101997.38;5051514;28;20419;-58
2022/06/10 11:23:12;;;;;;;9.38;2.22;;;;;;;26.08;52.65;101995.50;5054355;28;20499;-58
2022/06/10 11:26:05;;;;;;;9.57;2.13;;;;;;;25.89;53.44;101991.31;5051432;28;20045;-52
2022/06/10 11:28:37;;;;;;;9.65;2.10;;;;;;;25.99;55.20;101993.81;5050270;28;20049;-51
2022/06/10 11:31:18;;;;;;;10.07;2.38;;;;;;;26.09;55.82;101994.44;5052790;28;20059;-52
2022/06/10 11:33:48;;;;;;;11.10;2.35;;;;;;;26.04;56.08;101996.84;5054199;28;20051;-50
2022/06/10 11:36:25;;;;;;;8.82;2.20;;;;;;;25.81;56.83;101997.56;5054186;28;20053;-51
2022/06/10 11:39:07;;;;;;;8.07;2.10;;;;;;;25.95;56.31;101997.88;5054228;28;20148;-48
2022/06/10 11:41:36;;;;;;;9.07;2.07;;;;;;;25.83;56.55;101989.31;5053741;28;20127;-57
2022/06/10 11:44:12;;;;;;;11.55;2.42;;;;;;;25.69;56.48;101993.56;5052473;28;20917;-57
2022/06/10 11:46:47;;;;;;;7.38;1.80;;;;;;;25.65;56.90;101986.84;5053780;28;20511;-57
2022/06/10 11:49:23;;;;;;;9.82;2.70;;;;;;;25.35;56.11;101991.94;5053806;28;20049;-57
2022/06/10 11:51:59;;;;;;;11.15;2.53;;;;;;;25.28;58.31;101996.31;5053821;28;20045;-52
2022/06/10 11:54:35;;;;;;;8.95;2.15;;;;;;;25.29;57.18;101993.44;5053452;28;20051;-57
2022/06/10 12:00:07;;;;;;;8.77;2.22;;;;;;;25.08;59.48;101980.50;5053653;28;20442;-51
2022/06/10 12:02:40;;;;;;;8.60;1.98;;;;;;;25.36;59.20;101984.72;5053466;28;20472;-58
2022/06/10 12:05:26;;;;;;;7.78;2.10;;;;;;;25.44;59.48;101984.69;5051468;28;20132;-58